Main page
METAR-TAF:

METAR-TAF

Airports :

George Best Belfast City Airport

Belfast City, Northern Ireland

latitude: 54-36N, longitude: 005-53W, elevation: 5 m

Current weather observation

The report was made 26 minutes ago, at 08:50 UTC
Wind 8 kt from the Southwest
Temperature 7°C
Humidity 76%
Pressure 1034 hPa
Visibility 10 km or more

METAR: EGAC 260850Z AUTO 22008KT 9999 OVC037/// 07/03 Q1034

Time: 09:16 (09:16 UTC)

Forecast

The report was made 1 hour and 20 minutes ago, at 07:56 UTC
Forecast valid from 26 at 09 UTC to 26 at 18 UTC
Wind 8 kt from the West
Visibility 10 km or more
Few clouds at a height of 2500 ft
Broken clouds at a height of 3600 ft

TAF: EGAC 260756Z 2609/2618 26008KT 9999 FEW025 BKN036

Weather observations and forecasts of more than 4000 airports (METAR and TAF reports).

The available stations are represented by yellow and red dots on the map.

Hover mouse over dot to see the name of the station.

Then click to see weather observations and forecasts.

To change the map : click on the green buttons with a black cross to zoom in, on the green button with a dash to zoom out, or on the green arrows for adjacent maps.


METAR-TAF: